createdAt,value
2018-10-01T00:00:06.290Z,13.20
2018-10-01T00:02:45.197Z,13.20
2018-10-01T00:05:13.553Z,13.30
2018-10-01T00:07:42.208Z,13.30
2018-10-01T00:10:10.563Z,13.20
2018-10-01T00:12:40.967Z,13.10
2018-10-01T00:15:09.239Z,13.00
2018-10-01T00:17:37.545Z,13.00
2018-10-01T00:20:11.565Z,13.00
2018-10-01T00:22:45.305Z,12.70
2018-10-01T00:25:15.167Z,12.70
2018-10-01T00:27:43.437Z,12.80
2018-10-01T00:30:11.741Z,12.60
2018-10-01T00:32:40.305Z,12.70
2018-10-01T00:35:08.606Z,12.70
2018-10-01T00:37:37.978Z,12.30
2018-10-01T00:40:06.290Z,12.10
2018-10-01T00:42:34.567Z,12.00
2018-10-01T00:45:03.190Z,12.00
2018-10-01T00:47:31.461Z,12.20
2018-10-01T00:49:59.737Z,12.30
2018-10-01T00:52:28.008Z,12.40
2018-10-01T00:54:56.626Z,12.40
2018-10-01T00:57:25.702Z,12.60
2018-10-01T00:59:53.984Z,12.80
2018-10-01T01:02:22.583Z,12.90
2018-10-01T01:04:50.997Z,12.90
2018-10-01T01:07:19.393Z,13.00
2018-10-01T01:09:47.674Z,13.10
2018-10-01T01:12:15.960Z,13.20
2018-10-01T01:14:44.280Z,13.40
2018-10-01T01:17:12.613Z,13.30
2018-10-01T01:19:40.905Z,13.30
2018-10-01T01:22:09.212Z,13.40
2018-10-01T01:24:37.777Z,13.30
2018-10-01T01:27:06.531Z,13.40
2018-10-01T01:29:34.807Z,13.40
2018-10-01T01:32:03.417Z,13.40
2018-10-01T01:34:32.288Z,13.30
2018-10-01T01:37:00.580Z,13.20
2018-10-01T01:39:28.898Z,13.00
2018-10-01T01:41:57.355Z,12.90
2018-10-01T01:44:25.687Z,12.90
2018-10-01T01:46:54.013Z,12.80
2018-10-01T01:49:22.270Z,12.70
2018-10-01T01:51:50.534Z,12.70
2018-10-01T01:54:18.906Z,12.60
2018-10-01T01:56:47.210Z,12.60
2018-10-01T01:59:15.488Z,12.40
2018-10-01T02:01:44.067Z,12.40
2018-10-01T02:04:13.073Z,12.40
2018-10-01T02:06:42.443Z,12.40
2018-10-01T02:09:11.738Z,12.50
2018-10-01T02:11:41.783Z,12.40
2018-10-01T02:14:10.103Z,12.40
2018-10-01T02:16:38.727Z,12.60
2018-10-01T02:19:07.014Z,12.60
2018-10-01T02:21:35.298Z,12.70
2018-10-01T02:24:03.849Z,12.70
2018-10-01T02:26:32.143Z,12.90
2018-10-01T02:29:00.459Z,13.00
2018-10-01T02:31:28.821Z,13.00
2018-10-01T02:33:57.185Z,12.60
2018-10-01T02:36:25.552Z,12.40
2018-10-01T02:38:53.998Z,12.40
2018-10-01T02:41:22.403Z,12.40
2018-10-01T02:43:50.771Z,12.30
2018-10-01T02:46:21.303Z,12.10
2018-10-01T02:48:49.931Z,12.20
2018-10-01T02:51:18.479Z,12.10
2018-10-01T02:53:52.758Z,12.10
2018-10-01T02:56:21.377Z,12.10
2018-10-01T02:58:49.857Z,12.20
2018-10-01T03:01:18.751Z,12.40
2018-10-01T03:03:47.381Z,12.50
2018-10-01T03:06:15.896Z,12.60
2018-10-01T03:08:44.664Z,12.70
2018-10-01T03:11:13.280Z,12.80
2018-10-01T03:13:41.793Z,12.80
2018-10-01T03:16:10.889Z,12.70
2018-10-01T03:18:39.549Z,12.80
2018-10-01T03:21:07.991Z,12.80
2018-10-01T03:23:36.416Z,12.70
2018-10-01T03:26:04.948Z,12.70
2018-10-01T03:28:33.503Z,12.70
2018-10-01T03:31:02.102Z,12.60
2018-10-01T03:33:30.635Z,12.50
2018-10-01T03:35:59.204Z,12.50
2018-10-01T03:38:28.329Z,12.50
2018-10-01T03:40:57.044Z,12.60
2018-10-01T03:43:25.739Z,12.50
2018-10-01T03:45:54.231Z,12.50
2018-10-01T03:48:23.130Z,12.60
2018-10-01T03:50:51.685Z,12.70
2018-10-01T03:53:20.038Z,12.70
2018-10-01T03:55:48.453Z,12.80
2018-10-01T03:58:16.871Z,12.60
2018-10-01T04:00:45.411Z,12.40
2018-10-01T04:03:14.140Z,12.40
2018-10-01T04:05:42.515Z,12.40
2018-10-01T04:08:11.322Z,12.40
2018-10-01T04:10:39.704Z,12.30
2018-10-01T04:13:08.014Z,12.30
2018-10-01T04:15:36.351Z,12.30
2018-10-01T04:18:04.757Z,12.30
2018-10-01T04:20:33.153Z,12.40
2018-10-01T04:23:01.505Z,12.30
2018-10-01T04:25:29.850Z,12.30
2018-10-01T04:27:58.996Z,12.20
2018-10-01T04:30:27.715Z,12.20
2018-10-01T04:32:56.028Z,12.20
2018-10-01T04:35:24.516Z,12.30
2018-10-01T04:37:53.419Z,12.30
2018-10-01T04:40:21.791Z,12.30
2018-10-01T04:42:50.911Z,12.20
2018-10-01T04:45:19.387Z,12.20
2018-10-01T04:47:49.644Z,12.20
2018-10-01T04:50:18.145Z,12.10
2018-10-01T04:52:48.184Z,11.90
2018-10-01T04:55:18.413Z,11.60
2018-10-01T04:57:46.789Z,11.70
2018-10-01T05:00:19.246Z,11.70
2018-10-01T05:02:47.702Z,11.50
2018-10-01T05:05:17.961Z,11.50
2018-10-01T05:07:46.421Z,11.50
2018-10-01T05:10:16.440Z,11.50
2018-10-01T05:12:45.000Z,11.30
2018-10-01T05:15:14.216Z,11.10
2018-10-01T05:17:42.722Z,10.90
2018-10-01T05:20:11.101Z,10.70
2018-10-01T05:22:39.559Z,10.70
2018-10-01T05:25:08.153Z,10.60
2018-10-01T05:27:36.922Z,10.50
2018-10-01T05:30:05.402Z,10.50
2018-10-01T05:32:33.802Z,10.50
2018-10-01T05:35:02.152Z,10.30
2018-10-01T05:37:30.686Z,10.30
2018-10-01T05:39:59.329Z,10.40
2018-10-01T05:42:28.027Z,10.40
2018-10-01T05:44:56.974Z,10.60
2018-10-01T05:47:25.485Z,10.70
2018-10-01T05:49:54.516Z,10.70
2018-10-01T05:52:22.878Z,10.80
2018-10-01T05:54:51.436Z,10.80
2018-10-01T05:57:21.138Z,10.80
2018-10-01T05:59:49.848Z,10.90
2018-10-01T06:02:18.816Z,11.20
2018-10-01T06:04:47.204Z,11.40
2018-10-01T06:07:15.739Z,11.40
2018-10-01T06:09:44.140Z,11.30
2018-10-01T06:12:12.525Z,11.00
2018-10-01T06:14:45.347Z,10.60
2018-10-01T06:17:13.642Z,10.60
2018-10-01T06:19:42.246Z,10.40
2018-10-01T06:22:10.612Z,10.40
2018-10-01T06:24:38.892Z,10.30
2018-10-01T06:27:07.205Z,10.20
2018-10-01T06:29:36.727Z,10.20
2018-10-01T06:32:05.093Z,10.10
2018-10-01T06:34:38.645Z,10.10
2018-10-01T06:37:06.948Z,10.10
2018-10-01T06:39:35.228Z,10.10
2018-10-01T06:42:03.672Z,10.20
2018-10-01T06:44:32.008Z,10.20
2018-10-01T06:47:00.354Z,10.30
2018-10-01T06:49:28.697Z,10.30
2018-10-01T06:51:57.089Z,10.40
2018-10-01T06:54:25.504Z,10.50
2018-10-01T06:56:53.823Z,10.50
2018-10-01T06:59:22.178Z,10.60
2018-10-01T07:01:50.572Z,10.60
2018-10-01T07:04:18.878Z,10.50
2018-10-01T07:06:50.414Z,10.40
2018-10-01T07:09:23.013Z,10.40
2018-10-01T07:11:51.340Z,10.40
2018-10-01T07:14:19.679Z,10.40
2018-10-01T07:16:48.087Z,10.40
2018-10-01T07:19:16.363Z,10.30
2018-10-01T07:21:44.624Z,10.30
2018-10-01T07:24:13.401Z,10.20
2018-10-01T07:26:41.738Z,10.40
2018-10-01T07:29:10.074Z,10.40
2018-10-01T07:31:38.397Z,10.40
2018-10-01T07:34:06.721Z,10.40
2018-10-01T07:36:35.132Z,10.40
2018-10-01T07:52:55.886Z,10.40
2018-10-01T07:59:13.839Z,11.10
2018-10-01T08:01:48.554Z,11.40
2018-10-01T08:04:19.707Z,11.70
2018-10-01T08:06:48.807Z,11.80
2018-10-01T08:09:18.381Z,11.80
2018-10-01T08:11:48.541Z,11.80
2018-10-01T08:14:17.519Z,11.80
2018-10-01T08:16:48.033Z,12.00
2018-10-01T08:19:17.113Z,12.10
2018-10-01T08:21:45.535Z,12.10
2018-10-01T08:24:16.589Z,11.90
2018-10-01T08:26:46.481Z,11.60
2018-10-01T08:29:18.153Z,10.90
2018-10-01T08:31:48.514Z,10.50
2018-10-01T08:34:16.895Z,10.20
2018-10-01T08:36:45.263Z,10.10
2018-10-01T08:39:14.950Z,10.00
2018-10-01T08:41:43.410Z,9.80
2018-10-01T08:44:12.770Z,9.70
2018-10-01T08:46:41.292Z,9.80
2018-10-01T08:49:22.301Z,9.90
2018-10-01T08:51:55.580Z,9.90
2018-10-01T08:54:34.443Z,9.90
2018-10-01T08:57:03.895Z,9.90
2018-10-01T08:59:33.417Z,10.10
2018-10-01T09:02:04.995Z,10.40
2018-10-01T09:04:34.892Z,10.60
2018-10-01T09:07:04.653Z,10.70
2018-10-01T09:09:33.175Z,10.80
2018-10-01T09:12:02.327Z,10.80
2018-10-01T09:14:31.433Z,10.90
2018-10-01T09:17:01.178Z,10.90
2018-10-01T09:19:30.511Z,11.00
2018-10-01T09:21:59.168Z,11.10
2018-10-01T09:24:28.118Z,11.20
2018-10-01T09:26:58.865Z,11.20
2018-10-01T09:29:29.334Z,11.20
2018-10-01T09:31:57.760Z,11.20
2018-10-01T09:34:26.218Z,11.20
2018-10-01T09:36:56.036Z,11.30
2018-10-01T09:39:25.297Z,11.50
2018-10-01T09:41:53.776Z,11.70
2018-10-01T09:44:23.743Z,11.70
2018-10-01T09:46:53.203Z,11.90
2018-10-01T09:49:23.928Z,11.80
2018-10-01T09:51:53.547Z,11.90
2018-10-01T09:54:23.187Z,11.80
2018-10-01T09:56:53.691Z,11.70
2018-10-01T09:59:23.722Z,11.60
2018-10-01T10:02:03.805Z,11.70
2018-10-01T10:04:35.106Z,11.80
2018-10-01T10:07:03.440Z,11.80
2018-10-01T10:09:31.831Z,11.90
2018-10-01T10:12:01.311Z,11.90
2018-10-01T10:14:29.787Z,11.90
2018-10-01T10:16:58.914Z,12.00
2018-10-01T10:19:28.006Z,12.20
2018-10-01T10:21:57.445Z,12.20
2018-10-01T10:24:26.547Z,12.40
2018-10-01T10:26:56.169Z,12.40
2018-10-01T10:29:28.523Z,12.40
2018-10-01T10:31:58.330Z,12.20
2018-10-01T10:34:27.617Z,12.20
2018-10-01T10:36:55.893Z,12.30
2018-10-01T10:39:24.661Z,12.50
2018-10-01T10:41:53.508Z,12.50
2018-10-01T10:44:23.099Z,12.50
2018-10-01T10:46:52.343Z,12.50
2018-10-01T10:49:21.844Z,12.50
2018-10-01T10:51:50.325Z,12.50
2018-10-01T10:54:19.954Z,12.50
2018-10-01T10:56:49.070Z,12.60
2018-10-01T10:59:20.934Z,12.50
2018-10-01T11:01:50.542Z,12.50
2018-10-01T11:04:20.463Z,12.50
2018-10-01T11:06:49.925Z,12.50
2018-10-01T11:09:19.918Z,12.60
2018-10-01T11:11:49.168Z,12.70
2018-10-01T11:14:17.833Z,12.80
2018-10-01T11:16:46.073Z,13.00
2018-10-01T11:19:14.626Z,13.10
2018-10-01T11:21:47.125Z,12.90
2018-10-01T11:24:15.862Z,12.60
2018-10-01T11:26:44.242Z,12.50
2018-10-01T11:29:12.630Z,12.40
2018-10-01T11:31:41.139Z,12.40
2018-10-01T11:34:09.409Z,12.60
2018-10-01T11:36:38.335Z,12.80
2018-10-01T11:39:11.077Z,12.90
2018-10-01T11:41:39.368Z,12.60
2018-10-01T11:44:07.911Z,12.40
2018-10-01T11:46:36.299Z,12.40
2018-10-01T11:49:04.641Z,12.40
2018-10-01T11:51:33.005Z,12.40
2018-10-01T11:54:01.529Z,12.40
2018-10-01T11:56:29.879Z,12.50
2018-10-01T11:58:58.276Z,12.60
2018-10-01T12:01:26.781Z,12.70
2018-10-01T12:03:55.273Z,12.60
2018-10-01T12:06:24.016Z,12.60
2018-10-01T12:08:52.454Z,12.60
2018-10-01T12:11:20.922Z,12.60
2018-10-01T12:13:50.343Z,12.70
2018-10-01T12:16:18.703Z,12.80
2018-10-01T12:18:47.030Z,12.80
2018-10-01T12:21:15.436Z,12.90
2018-10-01T12:23:43.650Z,12.70
2018-10-01T12:26:12.413Z,12.70
2018-10-01T12:28:40.773Z,12.90
2018-10-01T12:31:09.437Z,12.90
2018-10-01T12:33:37.758Z,12.80
2018-10-01T12:36:06.106Z,12.60
2018-10-01T12:38:34.590Z,12.40
2018-10-01T12:41:02.879Z,12.20
2018-10-01T12:43:31.154Z,12.10
2018-10-01T12:45:59.470Z,12.00
2018-10-01T12:48:27.802Z,12.00
2018-10-01T12:50:56.260Z,12.20
2018-10-01T12:53:24.660Z,12.10
2018-10-01T12:55:53.368Z,11.70
2018-10-01T12:58:22.222Z,11.40
2018-10-01T13:00:50.750Z,11.20
2018-10-01T13:03:19.852Z,11.10
2018-10-01T13:05:48.410Z,11.20
2018-10-01T13:08:16.759Z,11.30
2018-10-01T13:10:45.091Z,11.40
2018-10-01T13:13:14.179Z,11.30
2018-10-01T13:15:43.530Z,11.50
2018-10-01T13:18:11.897Z,11.60
2018-10-01T13:20:40.206Z,11.50
2018-10-01T13:23:08.489Z,11.60
2018-10-01T13:25:37.461Z,11.70
2018-10-01T13:28:06.851Z,11.40
2018-10-01T13:30:35.346Z,10.80
2018-10-01T13:33:03.736Z,10.80
2018-10-01T13:35:32.146Z,10.80
2018-10-01T13:38:00.765Z,10.90
2018-10-01T13:40:29.109Z,10.80
2018-10-01T13:42:57.539Z,10.90
2018-10-01T13:45:26.270Z,11.00
2018-10-01T13:47:54.631Z,11.30
2018-10-01T13:50:22.984Z,11.50
2018-10-01T13:52:51.429Z,11.60
2018-10-01T13:55:19.870Z,11.60
2018-10-01T13:57:48.171Z,11.80
2018-10-01T14:00:16.508Z,11.80
2018-10-01T14:02:44.837Z,11.90
2018-10-01T14:05:14.042Z,12.00
2018-10-01T14:07:42.453Z,12.10
2018-10-01T14:10:11.539Z,12.20
2018-10-01T14:12:40.142Z,12.40
2018-10-01T14:15:08.587Z,12.60
2018-10-01T14:17:36.952Z,12.50
2018-10-01T14:20:05.444Z,12.40
2018-10-01T14:22:33.773Z,12.20
2018-10-01T14:25:02.505Z,12.20
2018-10-01T14:27:31.165Z,12.00
2018-10-01T14:29:59.886Z,11.90
2018-10-01T14:32:28.778Z,12.00
2018-10-01T14:34:57.157Z,12.30
2018-10-01T14:37:26.214Z,12.40
2018-10-01T14:39:54.956Z,12.70
2018-10-01T14:42:24.286Z,12.80
2018-10-01T14:44:53.697Z,12.80
2018-10-01T14:47:22.081Z,12.60
2018-10-01T14:49:50.393Z,12.60
2018-10-01T14:52:18.908Z,12.50
2018-10-01T14:54:47.260Z,12.50
2018-10-01T14:57:16.843Z,12.50
2018-10-01T14:59:45.256Z,12.50
2018-10-01T15:02:14.286Z,12.50
2018-10-01T15:04:43.272Z,12.50
2018-10-01T15:07:11.782Z,12.40
2018-10-01T15:09:40.120Z,12.10
2018-10-01T15:12:08.476Z,12.10
2018-10-01T15:14:37.121Z,12.10
2018-10-01T15:17:05.480Z,12.10
2018-10-01T15:19:33.787Z,12.20
2018-10-01T15:22:02.775Z,12.30
2018-10-01T15:24:31.123Z,12.30
2018-10-01T15:26:59.697Z,12.20
2018-10-01T15:29:28.562Z,12.20
2018-10-01T15:31:59.086Z,12.10
2018-10-01T15:34:28.214Z,12.10
2018-10-01T15:36:57.609Z,12.10
2018-10-01T15:39:26.223Z,12.10
2018-10-01T15:41:55.304Z,12.10
2018-10-01T15:44:23.708Z,12.00
2018-10-01T15:46:52.019Z,11.50
2018-10-01T15:49:20.804Z,11.10
2018-10-01T15:51:49.294Z,10.70
2018-10-01T15:54:18.103Z,10.50
2018-10-01T15:56:46.634Z,10.70
2018-10-01T15:59:15.080Z,10.80
2018-10-01T16:01:43.401Z,10.90
2018-10-01T16:04:11.855Z,11.10
2018-10-01T16:06:40.976Z,11.10
2018-10-01T16:09:10.664Z,11.00
2018-10-01T16:11:39.452Z,10.80
2018-10-01T16:14:09.272Z,10.80
2018-10-01T16:16:38.642Z,10.80
2018-10-01T16:19:06.991Z,10.90
2018-10-01T16:21:36.505Z,11.00
2018-10-01T16:24:04.985Z,11.00
2018-10-01T16:26:33.327Z,11.20
2018-10-01T16:29:01.651Z,11.20
2018-10-01T16:31:29.980Z,11.20
2018-10-01T16:33:58.270Z,11.20
2018-10-01T16:36:26.554Z,11.10
2018-10-01T16:38:55.934Z,11.10
2018-10-01T16:41:24.209Z,11.20
2018-10-01T16:43:52.491Z,11.00
2018-10-01T16:46:21.123Z,11.00
2018-10-01T16:48:49.518Z,10.90
2018-10-01T16:51:17.990Z,10.90
2018-10-01T16:53:46.248Z,10.90
2018-10-01T16:56:15.883Z,10.80
2018-10-01T16:58:44.233Z,10.70
2018-10-01T17:01:12.627Z,10.70
2018-10-01T17:03:41.125Z,10.80
2018-10-01T17:06:16.803Z,10.80
2018-10-01T17:08:46.504Z,10.80
2018-10-01T17:11:16.016Z,10.90
2018-10-01T17:13:44.534Z,10.90
2018-10-01T17:16:14.865Z,11.00
2018-10-01T17:18:43.181Z,10.90
2018-10-01T17:21:11.610Z,10.80
2018-10-01T17:23:40.200Z,10.80
2018-10-01T17:26:14.564Z,11.00
2018-10-01T17:28:44.756Z,10.90
2018-10-01T17:31:18.814Z,10.90
2018-10-01T17:33:49.825Z,10.90
2018-10-01T17:36:23.143Z,10.90
2018-10-01T17:39:02.230Z,10.80
2018-10-01T17:41:30.989Z,10.80
2018-10-01T17:44:01.752Z,10.70
2018-10-01T17:46:31.378Z,10.60
2018-10-01T17:49:02.613Z,10.60
2018-10-01T17:51:31.162Z,10.60
2018-10-01T17:53:59.676Z,10.60
2018-10-01T17:56:30.577Z,10.70
2018-10-01T17:59:00.548Z,10.60
2018-10-01T18:01:31.129Z,10.60
2018-10-01T18:04:04.614Z,10.60
2018-10-01T18:06:39.701Z,10.70
2018-10-01T18:09:10.515Z,10.80
2018-10-01T18:11:40.667Z,10.80
2018-10-01T18:14:09.993Z,10.60
2018-10-01T18:16:39.723Z,10.60
2018-10-01T18:19:09.446Z,10.60
2018-10-01T18:21:38.896Z,10.60
2018-10-01T18:24:07.535Z,10.60
2018-10-01T18:26:36.695Z,10.70
2018-10-01T18:29:05.755Z,10.70
2018-10-01T18:31:36.375Z,10.80
2018-10-01T18:34:04.881Z,10.80
2018-10-01T18:36:34.341Z,10.80
2018-10-01T18:39:28.715Z,10.90
2018-10-01T18:41:58.925Z,10.90
2018-10-01T18:44:28.679Z,10.80
2018-10-01T18:47:00.795Z,11.00
2018-10-01T18:49:29.823Z,10.90
2018-10-01T18:51:58.199Z,10.60
2018-10-01T18:54:27.034Z,10.40
2018-10-01T18:56:57.043Z,10.40
2018-10-01T18:59:25.962Z,10.60
2018-10-01T19:01:54.222Z,10.70
2018-10-01T19:04:22.508Z,10.60
2018-10-01T19:06:50.937Z,10.80
2018-10-01T19:09:23.693Z,11.00
2018-10-01T19:11:53.369Z,11.10
2018-10-01T19:14:21.934Z,11.20
2018-10-01T19:17:06.798Z,11.10
2018-10-01T19:19:35.221Z,10.90
2018-10-01T19:22:03.782Z,10.80
2018-10-01T19:24:32.594Z,10.90
2018-10-01T19:27:02.628Z,11.10
2018-10-01T19:29:31.103Z,11.10
2018-10-01T19:31:59.538Z,11.20
2018-10-01T19:34:27.921Z,11.20
2018-10-01T19:36:56.301Z,11.30
2018-10-01T19:39:25.695Z,11.50
2018-10-01T19:41:54.032Z,11.60
2018-10-01T19:44:22.370Z,11.60
2018-10-01T19:46:51.608Z,11.50
2018-10-01T19:49:20.343Z,11.50
2018-10-01T19:51:49.519Z,11.50
2018-10-01T19:54:18.099Z,11.50
2018-10-01T19:56:47.032Z,11.40
2018-10-01T19:59:15.417Z,11.40
2018-10-01T20:01:43.705Z,11.40
2018-10-01T20:04:11.987Z,11.50
2018-10-01T20:06:40.591Z,11.40
2018-10-01T20:09:11.073Z,11.50
2018-10-01T20:11:39.348Z,11.50
2018-10-01T20:14:07.668Z,11.50
2018-10-01T20:16:37.901Z,11.40
2018-10-01T20:19:06.307Z,11.30
2018-10-01T20:21:34.595Z,11.30
2018-10-01T20:24:04.886Z,11.30
2018-10-01T20:26:33.322Z,11.30
2018-10-01T20:29:01.944Z,11.30
2018-10-01T20:31:29.976Z,11.30
2018-10-01T20:33:58.323Z,11.20
2018-10-01T20:36:26.853Z,11.30
2018-10-01T20:38:55.194Z,11.30
2018-10-01T20:41:23.597Z,11.20
2018-10-01T20:43:51.996Z,11.20
2018-10-01T20:46:20.428Z,11.20
2018-10-01T20:48:48.725Z,11.20
2018-10-01T20:51:17.439Z,11.20
2018-10-01T20:53:45.853Z,11.10
2018-10-01T20:56:16.353Z,10.40
2018-10-01T20:58:46.625Z,9.90
2018-10-01T21:01:18.051Z,9.70
2018-10-01T21:03:55.688Z,9.80
2018-10-01T21:06:27.650Z,9.60
2018-10-01T21:08:56.328Z,9.80
2018-10-01T21:11:25.000Z,10.10
2018-10-01T21:13:57.434Z,10.40
2018-10-01T21:16:27.864Z,10.70
2018-10-01T21:18:56.295Z,10.80
2018-10-01T21:21:28.428Z,10.80
2018-10-01T21:23:59.508Z,10.80
2018-10-01T21:26:27.825Z,10.70
2018-10-01T21:28:56.161Z,10.80
2018-10-01T21:31:24.461Z,10.80
2018-10-01T21:33:53.096Z,10.70
2018-10-01T21:36:21.569Z,10.60
2018-10-01T21:38:50.999Z,10.60
2018-10-01T21:41:19.365Z,10.60
2018-10-01T21:43:47.686Z,10.60
2018-10-01T21:46:15.955Z,10.60
2018-10-01T21:48:44.844Z,10.60
2018-10-01T21:51:13.166Z,10.60
2018-10-01T21:53:41.490Z,10.60
2018-10-01T21:56:09.771Z,10.60
2018-10-01T21:58:38.147Z,10.50
2018-10-01T22:01:11.701Z,10.50
2018-10-01T22:03:39.963Z,10.40
2018-10-01T22:06:09.501Z,10.40
2018-10-01T22:08:37.743Z,10.40
2018-10-01T22:11:06.027Z,10.50
2018-10-01T22:13:34.369Z,10.40
2018-10-01T22:16:02.655Z,10.40
2018-10-01T22:18:31.022Z,10.40
2018-10-01T22:20:59.345Z,10.50
2018-10-01T22:23:27.621Z,10.40
2018-10-01T22:25:55.906Z,10.40
2018-10-01T22:28:24.174Z,10.50
2018-10-01T22:30:53.082Z,10.50
2018-10-01T22:33:21.502Z,10.60
2018-10-01T22:35:49.872Z,10.70
2018-10-01T22:38:18.481Z,10.70
2018-10-01T22:40:46.803Z,10.80
2018-10-01T22:43:15.086Z,10.80
2018-10-01T22:45:43.384Z,10.80
2018-10-01T22:48:11.698Z,10.80
2018-10-01T22:50:40.401Z,10.80
2018-10-01T22:53:08.987Z,10.90
2018-10-01T22:55:37.259Z,10.80
2018-10-01T22:58:05.515Z,10.80
2018-10-01T23:00:34.400Z,10.80
2018-10-01T23:03:02.687Z,10.80
2018-10-01T23:05:30.944Z,10.80
2018-10-01T23:07:59.637Z,10.70
2018-10-01T23:10:27.908Z,10.70
2018-10-01T23:12:56.175Z,10.80
2018-10-01T23:15:24.457Z,10.70
2018-10-01T23:17:52.732Z,10.70
2018-10-01T23:20:20.976Z,10.80
2018-10-01T23:22:49.336Z,10.80
2018-10-01T23:25:18.201Z,10.80
2018-10-01T23:27:46.449Z,10.80
2018-10-01T23:30:14.779Z,10.80
2018-10-01T23:32:43.057Z,10.80
2018-10-01T23:35:11.958Z,10.70
2018-10-01T23:37:40.254Z,10.80
2018-10-01T23:40:09.466Z,10.80
2018-10-01T23:42:37.746Z,10.90
2018-10-01T23:45:06.554Z,10.90
2018-10-01T23:47:34.805Z,10.90
2018-10-01T23:50:03.154Z,10.90
2018-10-01T23:52:31.533Z,11.00
2018-10-01T23:54:59.818Z,11.00
2018-10-01T23:57:28.142Z,11.00
2018-10-01T23:59:56.418Z,11.00
